»·PEaware :: N314TW K9A5-KATL

N314TW :: K9A5-KATL

FLIGHT INFORMATION

Flight Status: Arrived
Operator: Privately registered:
United States
More flights under this callsign
Pilot: Timothy W. (9658)
Aircraft: Unknown
(E175)
More flights by this aircraft type
Origin: K9A5
Destination: KATL Hartsfield-Jackson Atlanta
United States
More flights between these airports :: More routes between these airports
Route: DCT
File this flight plan on PilotEdge
Remarks:
Altitude:
(Current/Filed)
7,000ft
Speed:
(Current/Filed)
333kts
Departed: 19-Jul-17 12:53 PM
Arrived: 19-Jul-17 01:27 PM
Distance/Time
Traveled:
Not Available
Distance/Time
To Go:
Arrived

Flight Plot

Page will automatically refresh every two minutes.

Flight plan parsing failed; only flown route is shown


Map Options




Map Legend


Flown Route
Filed Route
Departure Airport
Arrival Airport
Navaid (VOR, NDB)
Fix

Horizontal Profiles

Position Reports

Time Latitude Longitude Heading Altitude Ground
Speed
19-Jul-17 12:55 34.340234 -85.276055 189 6990ft 333kts
19-Jul-17 12:56 34.248819 -85.293868 189 6990ft 333kts
19-Jul-17 12:57 34.156816 -85.311653 186 6988ft 344kts
19-Jul-17 12:58 34.102406 -85.238461 78 6977ft 338kts
19-Jul-17 12:59 34.152209 -85.144636 65 6995ft 337kts
19-Jul-17 13:00 34.197459 -85.046137 58 7001ft 337kts
19-Jul-17 13:01 34.244921 -84.948531 58 7008ft 337kts
19-Jul-17 13:02 34.292239 -84.850814 59 7003ft 337kts
19-Jul-17 13:03 34.339442 -84.752577 59 6997ft 337kts
19-Jul-17 13:04 34.386400 -84.654397 59 7001ft 338kts
19-Jul-17 13:05 34.433518 -84.555683 59 7013ft 338kts
19-Jul-17 13:06 34.480540 -84.456889 59 7015ft 338kts
19-Jul-17 13:07 34.511289 -84.350403 76 7015ft 339kts
19-Jul-17 13:08 34.531474 -84.238565 77 7025ft 338kts
19-Jul-17 13:09 34.551373 -84.126927 77 7027ft 338kts
19-Jul-17 13:10 34.571143 -84.015364 77 7027ft 338kts
19-Jul-17 13:11 34.535867 -83.923536 160 7026ft 343kts
19-Jul-17 13:12 34.442359 -83.910506 178 7026ft 342kts
19-Jul-17 13:13 34.347531 -83.908722 179 7027ft 342kts
19-Jul-17 13:14 34.252457 -83.907538 179 7027ft 342kts
19-Jul-17 13:15 34.157989 -83.906380 179 7023ft 342kts
19-Jul-17 13:16 34.064277 -83.918796 189 7019ft 340kts
19-Jul-17 13:17 33.970648 -83.936711 189 7018ft 340kts
19-Jul-17 13:18 33.877401 -83.954562 189 7018ft 340kts
19-Jul-17 13:19 33.793456 -83.970566 190 7002ft 268kts
19-Jul-17 13:20 33.732309 -83.982191 190 7012ft 182kts
19-Jul-17 13:21 33.682475 -83.991715 190 7019ft 181kts
19-Jul-17 13:22 33.635992 -84.008380 242 6552ft 175kts
19-Jul-17 13:23 33.632318 -84.065108 269 5076ft 170kts
19-Jul-17 13:24 33.631835 -84.121113 270 3583ft 167kts
19-Jul-17 13:25 33.631784 -84.176473 271 2815ft 166kts
19-Jul-17 13:26 33.631836 -84.232628 272 2808ft 169kts
19-Jul-17 13:27 33.631765 -84.289478 272 2807ft 170kts
19-Jul-17 13:28 33.631791 -84.342548 272 2234ft 147kts
19-Jul-17 13:29 33.631811 -84.390984 272 1476ft 145kts
19-Jul-17 13:30 33.631815 -84.433763 261 1009ft 26kts
19-Jul-17 13:31 33.630611 -84.433994 102 1005ft 17kts
19-Jul-17 13:32 33.630753 -84.426580 90 996ft 27kts
19-Jul-17 13:33 33.630859 -84.418816 48 977ft 0kts
19-Jul-17 13:34 33.630859 -84.418816 48 977ft 0kts
19-Jul-17 13:35 33.630859 -84.418816 48 977ft 0kts
19-Jul-17 13:36 33.630859 -84.418816 48 977ft 0kts
19-Jul-17 13:37 33.630859 -84.418816 48 977ft 0kts
19-Jul-17 13:38 33.630859 -84.418816 48 977ft 0kts
19-Jul-17 13:39 33.630859 -84.418816 48 977ft 0kts
19-Jul-17 13:40 33.631810 -84.418716 289 977ft 4kts
19-Jul-17 13:41 33.631199 -84.454625 269 1262ft 222kts
19-Jul-17 13:42 33.640336 -84.525491 318 2414ft 226kts
19-Jul-17 13:43 33.687944 -84.575770 319 3450ft 238kts
19-Jul-17 13:44 33.751633 -84.641329 319 3491ft 315kts

Navigation Log

Ident Type
Flight plan parsing failed, navigation log unavailable